createdAt,value
2017-09-29T00:00:07.207Z,48.45
2017-09-29T00:02:34.710Z,46.63
2017-09-29T00:05:02.158Z,45.55
2017-09-29T00:07:29.656Z,45.38
2017-09-29T00:09:57.120Z,46.78
2017-09-29T00:12:24.582Z,47.30
2017-09-29T00:14:52.022Z,47.75
2017-09-29T00:17:19.464Z,47.67
2017-09-29T00:19:46.938Z,48.28
2017-09-29T00:22:14.394Z,48.90
2017-09-29T00:24:41.841Z,48.40
2017-09-29T00:27:09.304Z,47.78
2017-09-29T00:29:36.755Z,49.35
2017-09-29T00:32:04.195Z,48.63
2017-09-29T00:34:31.699Z,49.13
2017-09-29T00:36:59.140Z,48.08
2017-09-29T00:39:26.587Z,48.42
2017-09-29T00:41:54.039Z,48.45
2017-09-29T00:44:21.481Z,49.22
2017-09-29T00:46:48.916Z,50.85
2017-09-29T00:49:17.231Z,52.20
2017-09-29T00:51:44.675Z,49.67
2017-09-29T00:54:12.147Z,50.00
2017-09-29T00:56:39.599Z,49.35
2017-09-29T00:59:07.048Z,49.50
2017-09-29T01:01:34.517Z,48.83
2017-09-29T01:04:02.627Z,49.63
2017-09-29T01:06:30.075Z,50.28
2017-09-29T01:08:57.511Z,48.40
2017-09-29T01:11:24.952Z,51.83
2017-09-29T01:13:52.408Z,48.50
2017-09-29T01:16:19.863Z,51.78
2017-09-29T01:18:47.314Z,51.85
2017-09-29T01:21:14.792Z,51.10
2017-09-29T01:23:42.233Z,51.63
2017-09-29T01:26:09.691Z,49.00
2017-09-29T01:28:37.132Z,50.47
2017-09-29T01:31:04.603Z,51.92
2017-09-29T01:33:32.062Z,51.05
2017-09-29T01:35:59.620Z,50.80
2017-09-29T01:38:27.055Z,50.30
2017-09-29T01:40:54.526Z,48.42
2017-09-29T01:43:21.978Z,50.00
2017-09-29T01:45:49.443Z,50.30
2017-09-29T01:48:16.911Z,48.20
2017-09-29T01:50:44.351Z,49.83
2017-09-29T01:53:11.813Z,49.00
2017-09-29T01:55:39.273Z,50.90
2017-09-29T01:58:06.845Z,49.10
2017-09-29T02:00:34.266Z,50.92
2017-09-29T02:03:01.759Z,51.95
2017-09-29T02:05:29.982Z,48.53
2017-09-29T02:07:57.426Z,49.60
2017-09-29T02:10:24.867Z,50.03
2017-09-29T02:12:53.116Z,50.95
2017-09-29T02:15:20.540Z,50.43
2017-09-29T02:17:47.987Z,47.97
2017-09-29T02:20:15.465Z,48.90
2017-09-29T02:22:42.918Z,49.70
2017-09-29T02:25:10.378Z,51.20
2017-09-29T02:27:37.822Z,50.33
2017-09-29T02:30:05.254Z,53.08
2017-09-29T02:32:32.739Z,52.35
2017-09-29T02:35:00.184Z,53.60
2017-09-29T02:37:27.668Z,53.42
2017-09-29T02:39:55.111Z,54.28
2017-09-29T02:42:22.564Z,51.13
2017-09-29T02:44:50.006Z,52.60
2017-09-29T02:47:17.453Z,54.20
2017-09-29T02:49:44.895Z,52.38
2017-09-29T02:52:12.347Z,53.33
2017-09-29T02:54:39.851Z,54.63
2017-09-29T02:57:07.742Z,53.83
2017-09-29T02:59:36.113Z,53.97
2017-09-29T03:02:03.924Z,52.65
2017-09-29T03:04:32.117Z,53.80
2017-09-29T03:06:59.673Z,52.58
2017-09-29T03:09:27.111Z,54.90
2017-09-29T03:11:54.602Z,53.45
2017-09-29T03:14:22.054Z,53.70
2017-09-29T03:16:49.510Z,52.57
2017-09-29T03:19:16.982Z,54.50
2017-09-29T03:21:44.418Z,53.58
2017-09-29T03:24:11.894Z,50.70
2017-09-29T03:26:39.334Z,53.80
2017-09-29T03:29:06.795Z,54.13
2017-09-29T03:31:34.239Z,53.80
2017-09-29T03:34:01.682Z,51.80
2017-09-29T03:36:29.143Z,54.03
2017-09-29T03:38:56.575Z,53.67
2017-09-29T03:41:24.020Z,53.28
2017-09-29T03:43:51.647Z,55.33
2017-09-29T03:46:19.198Z,52.38
2017-09-29T03:48:46.648Z,53.60
2017-09-29T03:51:15.268Z,54.85
2017-09-29T03:53:43.805Z,55.78
2017-09-29T03:56:12.644Z,56.10
2017-09-29T03:58:40.455Z,54.60
2017-09-29T04:01:07.934Z,54.17
2017-09-29T04:03:35.375Z,55.30
2017-09-29T04:06:02.829Z,52.75
2017-09-29T04:08:30.287Z,52.83
2017-09-29T04:10:57.762Z,55.30
2017-09-29T04:13:25.217Z,54.10
2017-09-29T04:15:52.682Z,56.22
2017-09-29T04:18:20.127Z,54.27
2017-09-29T04:20:47.762Z,53.17
2017-09-29T04:23:15.187Z,53.20
2017-09-29T04:25:43.412Z,51.83
2017-09-29T04:28:10.878Z,52.70
2017-09-29T04:30:38.327Z,53.63
2017-09-29T04:33:05.772Z,53.58
2017-09-29T04:35:33.208Z,52.65
2017-09-29T04:38:00.698Z,52.53
2017-09-29T04:40:28.154Z,51.47
2017-09-29T04:42:55.585Z,52.90
2017-09-29T04:45:23.031Z,51.47
2017-09-29T04:47:50.484Z,51.35
2017-09-29T04:50:17.922Z,54.17
2017-09-29T04:52:46.149Z,52.10
2017-09-29T04:55:13.591Z,51.40
2017-09-29T04:57:41.244Z,52.75
2017-09-29T05:00:08.736Z,52.00
2017-09-29T05:02:36.175Z,53.92
2017-09-29T05:05:03.647Z,54.33
2017-09-29T05:07:31.092Z,53.80
2017-09-29T05:09:58.531Z,51.92
2017-09-29T05:12:26.108Z,54.28
2017-09-29T05:14:53.573Z,52.80
2017-09-29T05:17:21.011Z,53.00
2017-09-29T05:19:48.471Z,54.63
2017-09-29T05:22:16.018Z,55.80
2017-09-29T05:24:43.453Z,54.53
2017-09-29T05:27:11.075Z,54.17
2017-09-29T05:29:38.561Z,55.50
2017-09-29T05:32:06.010Z,57.25
2017-09-29T05:34:34.217Z,54.25
2017-09-29T05:37:01.667Z,55.50
2017-09-29T05:39:29.099Z,55.53
2017-09-29T05:41:56.724Z,57.28
2017-09-29T05:44:24.276Z,54.38
2017-09-29T05:46:51.713Z,56.23
2017-09-29T05:49:19.158Z,54.40
2017-09-29T05:51:46.611Z,54.58
2017-09-29T05:54:14.056Z,52.93
2017-09-29T05:56:41.551Z,53.92
2017-09-29T05:59:09.048Z,53.50
2017-09-29T06:01:36.547Z,53.77
2017-09-29T06:04:04.236Z,53.35
2017-09-29T06:06:31.988Z,54.13
2017-09-29T06:08:59.506Z,55.55
2017-09-29T06:11:27.712Z,54.47
2017-09-29T06:13:55.143Z,53.65
2017-09-29T06:16:22.615Z,53.92
2017-09-29T06:18:50.054Z,53.47
2017-09-29T06:21:17.522Z,54.88
2017-09-29T06:23:44.960Z,54.95
2017-09-29T06:26:12.453Z,53.17
2017-09-29T06:28:39.894Z,54.80
2017-09-29T06:31:07.347Z,51.92
2017-09-29T06:33:34.784Z,51.37
2017-09-29T06:36:02.239Z,50.05
2017-09-29T06:38:29.691Z,49.25
2017-09-29T06:40:57.127Z,50.92
2017-09-29T06:43:24.659Z,53.13
2017-09-29T06:45:52.094Z,52.72
2017-09-29T06:48:19.652Z,51.67
2017-09-29T06:50:47.282Z,51.37
2017-09-29T06:53:14.745Z,52.05
2017-09-29T06:55:42.236Z,50.25
2017-09-29T06:58:09.666Z,51.00
2017-09-29T07:00:37.791Z,48.97
2017-09-29T07:03:05.240Z,49.75
2017-09-29T07:05:33.451Z,49.63
2017-09-29T07:08:00.902Z,50.90
2017-09-29T07:10:28.367Z,51.05
2017-09-29T07:12:55.806Z,49.60
2017-09-29T07:15:23.247Z,50.70
2017-09-29T07:17:50.748Z,51.67
2017-09-29T07:20:18.275Z,50.95
2017-09-29T07:22:45.784Z,52.95
2017-09-29T07:25:14.222Z,51.28
2017-09-29T07:30:45.234Z,50.17
2017-09-29T07:33:13.470Z,49.92
2017-09-29T07:35:40.923Z,53.05
2017-09-29T07:38:08.391Z,51.80
2017-09-29T07:40:35.837Z,52.90
2017-09-29T07:43:03.275Z,50.97
2017-09-29T07:45:30.738Z,50.00
2017-09-29T07:47:58.175Z,51.33
2017-09-29T07:50:25.667Z,52.55
2017-09-29T07:52:53.139Z,50.88
2017-09-29T07:55:20.603Z,50.75
2017-09-29T07:57:48.138Z,51.33
2017-09-29T08:00:15.699Z,50.88
2017-09-29T08:02:43.142Z,49.63
2017-09-29T08:05:10.599Z,52.13
2017-09-29T08:07:38.044Z,51.25
2017-09-29T08:10:05.526Z,49.28
2017-09-29T08:12:33.139Z,49.78
2017-09-29T08:15:00.620Z,49.50
2017-09-29T08:17:28.122Z,50.22
2017-09-29T08:19:55.793Z,50.12
2017-09-29T08:22:25.012Z,49.70
2017-09-29T08:24:52.546Z,51.05
2017-09-29T08:27:19.982Z,48.95
2017-09-29T08:29:48.257Z,50.92
2017-09-29T08:32:15.770Z,50.83
2017-09-29T08:34:43.283Z,52.13
2017-09-29T08:37:10.759Z,48.80
2017-09-29T08:39:38.200Z,51.17
2017-09-29T08:42:05.729Z,49.90
2017-09-29T08:44:33.181Z,49.22
2017-09-29T08:47:00.620Z,49.37
2017-09-29T08:49:28.199Z,49.70
2017-09-29T08:51:55.736Z,50.15
2017-09-29T08:54:23.231Z,50.65
2017-09-29T08:56:50.786Z,52.92
2017-09-29T08:59:18.403Z,50.92
2017-09-29T09:01:45.848Z,51.90
2017-09-29T09:04:14.106Z,48.38
2017-09-29T09:06:41.610Z,47.80
2017-09-29T09:09:09.056Z,48.80
2017-09-29T09:11:36.831Z,48.42
2017-09-29T09:14:04.309Z,47.22
2017-09-29T09:16:32.079Z,49.25
2017-09-29T09:19:00.532Z,48.65
2017-09-29T09:21:27.979Z,50.15
2017-09-29T09:23:55.458Z,51.78
2017-09-29T09:26:22.911Z,50.75
2017-09-29T09:28:50.352Z,51.13
2017-09-29T09:31:17.824Z,51.78
2017-09-29T09:33:45.268Z,50.20
2017-09-29T09:36:12.842Z,53.30
2017-09-29T09:38:40.306Z,50.80
2017-09-29T09:41:07.771Z,50.37
2017-09-29T09:43:35.211Z,52.67
2017-09-29T09:46:02.778Z,51.95
2017-09-29T09:48:30.413Z,52.28
2017-09-29T09:50:57.836Z,52.03
2017-09-29T09:53:25.283Z,51.90
2017-09-29T09:55:53.517Z,51.83
2017-09-29T09:58:20.950Z,52.93
2017-09-29T10:00:48.379Z,54.95
2017-09-29T10:03:16.586Z,53.38
2017-09-29T10:05:44.031Z,53.15
2017-09-29T10:08:11.520Z,52.10
2017-09-29T10:10:38.947Z,52.72
2017-09-29T10:13:06.395Z,54.00
2017-09-29T10:15:33.830Z,53.35
2017-09-29T10:18:02.066Z,51.47
2017-09-29T10:20:29.606Z,51.17
2017-09-29T10:22:57.087Z,50.83
2017-09-29T10:25:24.530Z,50.78
2017-09-29T10:27:51.992Z,51.90
2017-09-29T10:30:19.547Z,50.88
2017-09-29T10:32:47.000Z,51.47
2017-09-29T10:35:14.563Z,56.40
2017-09-29T10:37:42.117Z,58.90
2017-09-29T10:40:09.597Z,52.55
2017-09-29T10:42:37.048Z,49.85
2017-09-29T10:45:04.507Z,50.88
2017-09-29T10:47:32.074Z,51.23
2017-09-29T10:50:00.296Z,51.40
2017-09-29T10:52:27.744Z,50.80
2017-09-29T10:54:55.183Z,48.45
2017-09-29T10:57:23.390Z,48.10
2017-09-29T10:59:50.875Z,49.28
2017-09-29T11:02:18.329Z,48.97
2017-09-29T11:04:45.771Z,49.10
2017-09-29T11:07:13.343Z,49.63
2017-09-29T11:09:40.995Z,47.75
2017-09-29T11:12:08.500Z,47.40
2017-09-29T11:14:36.737Z,46.27
2017-09-29T11:17:04.370Z,46.80
2017-09-29T11:19:31.804Z,45.80
2017-09-29T11:21:59.243Z,46.63
2017-09-29T11:24:27.489Z,45.45
2017-09-29T11:26:54.964Z,44.80
2017-09-29T11:29:22.503Z,46.03
2017-09-29T11:31:49.978Z,46.13
2017-09-29T11:34:18.193Z,44.95
2017-09-29T11:36:45.655Z,43.08
2017-09-29T11:39:13.098Z,42.97
2017-09-29T11:41:40.560Z,43.65
2017-09-29T11:44:08.023Z,41.87
2017-09-29T11:46:35.450Z,42.80
2017-09-29T11:49:02.959Z,43.73
2017-09-29T11:51:30.438Z,41.13
2017-09-29T11:53:57.871Z,39.72
2017-09-29T11:56:25.328Z,40.03
2017-09-29T11:58:53.003Z,41.00
2017-09-29T12:01:20.485Z,40.45
2017-09-29T12:03:48.098Z,41.78
2017-09-29T12:06:15.567Z,39.70
2017-09-29T12:08:43.030Z,40.45
2017-09-29T12:11:10.540Z,39.67
2017-09-29T12:13:37.971Z,40.20
2017-09-29T12:16:05.607Z,38.30
2017-09-29T12:18:33.045Z,41.25
2017-09-29T12:21:00.482Z,40.38
2017-09-29T12:23:27.923Z,39.50
2017-09-29T12:25:55.638Z,37.30
2017-09-29T12:28:23.292Z,38.65
2017-09-29T12:30:50.867Z,38.80
2017-09-29T12:33:18.329Z,40.00
2017-09-29T12:35:46.680Z,39.42
2017-09-29T12:38:14.226Z,38.57
2017-09-29T12:40:41.654Z,37.75
2017-09-29T12:43:09.116Z,39.60
2017-09-29T12:45:37.081Z,39.53
2017-09-29T12:48:04.573Z,37.70
2017-09-29T12:50:32.019Z,36.10
2017-09-29T12:52:59.555Z,38.42
2017-09-29T12:55:26.989Z,37.80
2017-09-29T12:57:54.440Z,38.72
2017-09-29T13:00:22.749Z,37.13
2017-09-29T13:02:50.169Z,38.40
2017-09-29T13:05:17.613Z,35.33
2017-09-29T13:07:45.053Z,38.30
2017-09-29T13:10:12.498Z,34.83
2017-09-29T13:12:39.939Z,35.63
2017-09-29T13:15:07.503Z,36.40
2017-09-29T13:17:35.050Z,35.83
2017-09-29T13:20:02.509Z,36.10
2017-09-29T13:22:29.942Z,35.50
2017-09-29T13:24:57.390Z,35.60
2017-09-29T13:27:24.839Z,34.15
2017-09-29T13:29:53.061Z,35.40
2017-09-29T13:32:20.485Z,34.97
2017-09-29T13:34:47.970Z,34.27
2017-09-29T13:37:15.519Z,32.88
2017-09-29T13:39:42.958Z,32.93
2017-09-29T13:42:10.390Z,33.83
2017-09-29T13:44:38.607Z,32.58
2017-09-29T13:47:06.059Z,33.90
2017-09-29T13:49:34.457Z,34.10
2017-09-29T13:52:01.914Z,35.13
2017-09-29T13:54:29.368Z,33.95
2017-09-29T13:56:56.926Z,33.03
2017-09-29T13:59:24.494Z,32.85
2017-09-29T14:01:52.014Z,31.85
2017-09-29T14:04:19.614Z,32.60
2017-09-29T14:06:47.122Z,32.47
2017-09-29T14:09:14.588Z,32.40
2017-09-29T14:11:42.049Z,33.40
2017-09-29T14:14:09.530Z,33.65
2017-09-29T14:16:36.979Z,37.63
2017-09-29T14:19:04.442Z,31.77
2017-09-29T14:21:31.874Z,32.80
2017-09-29T14:23:59.325Z,32.60
2017-09-29T14:26:26.910Z,32.00
2017-09-29T14:28:54.357Z,30.77
2017-09-29T14:31:21.795Z,30.70
2017-09-29T14:33:49.278Z,30.10
2017-09-29T14:36:16.717Z,32.08
2017-09-29T14:38:44.215Z,30.95
2017-09-29T14:41:11.665Z,30.02
2017-09-29T14:43:39.105Z,29.87
2017-09-29T14:46:06.671Z,31.52
2017-09-29T14:48:34.115Z,30.37
2017-09-29T14:51:01.567Z,30.90
2017-09-29T14:53:29.019Z,32.00
2017-09-29T14:55:56.498Z,32.00
2017-09-29T14:58:23.924Z,31.70
2017-09-29T15:00:51.518Z,31.10
2017-09-29T15:03:19.071Z,32.22
2017-09-29T15:05:46.632Z,31.20
2017-09-29T15:08:14.090Z,31.20
2017-09-29T15:10:41.585Z,29.45
2017-09-29T15:13:09.819Z,30.20
2017-09-29T15:15:38.158Z,32.55
2017-09-29T15:18:05.638Z,30.08
2017-09-29T15:20:33.182Z,30.67
2017-09-29T15:23:00.622Z,31.92
2017-09-29T15:25:28.191Z,29.87
2017-09-29T15:27:55.628Z,30.77
2017-09-29T15:30:23.147Z,31.65
2017-09-29T15:32:50.595Z,30.20
2017-09-29T15:35:18.047Z,29.63
2017-09-29T15:37:45.501Z,32.67
2017-09-29T15:40:12.950Z,31.77
2017-09-29T15:42:40.408Z,31.48
2017-09-29T15:45:07.979Z,30.40
2017-09-29T15:47:35.431Z,28.85
2017-09-29T15:50:02.889Z,30.90
2017-09-29T15:52:30.406Z,30.48
2017-09-29T15:54:57.902Z,31.73
2017-09-29T15:57:25.351Z,31.10
2017-09-29T15:59:52.838Z,30.70
2017-09-29T16:02:20.337Z,30.25
2017-09-29T16:04:47.787Z,34.72
2017-09-29T16:07:15.362Z,32.33
2017-09-29T16:09:42.814Z,32.85
2017-09-29T16:12:10.429Z,33.33
2017-09-29T16:14:38.652Z,33.30
2017-09-29T16:17:06.135Z,31.55
2017-09-29T16:19:33.596Z,33.45
2017-09-29T16:22:01.059Z,33.63
2017-09-29T16:24:28.526Z,32.67
2017-09-29T16:26:55.970Z,33.33
2017-09-29T16:29:23.502Z,33.22
2017-09-29T16:31:50.948Z,34.05
2017-09-29T16:34:18.512Z,33.88
2017-09-29T16:36:46.005Z,34.05
2017-09-29T16:39:13.449Z,33.97
2017-09-29T16:41:40.892Z,33.75
2017-09-29T16:44:08.387Z,38.65
2017-09-29T16:46:35.852Z,35.55
2017-09-29T16:49:03.295Z,36.08
2017-09-29T16:51:30.754Z,34.97
2017-09-29T16:53:58.269Z,34.58
2017-09-29T16:56:25.730Z,35.97
2017-09-29T16:58:53.198Z,34.28
2017-09-29T17:01:20.644Z,35.35
2017-09-29T17:03:48.202Z,35.20
2017-09-29T17:06:15.994Z,36.10
2017-09-29T17:08:43.458Z,36.63
2017-09-29T17:11:10.918Z,35.03
2017-09-29T17:13:38.370Z,36.27
2017-09-29T17:16:05.800Z,35.95
2017-09-29T17:18:33.350Z,36.90
2017-09-29T17:21:00.815Z,36.90
2017-09-29T17:23:28.261Z,36.03
2017-09-29T17:25:55.835Z,37.28
2017-09-29T17:28:23.290Z,38.63
2017-09-29T17:30:50.836Z,37.05
2017-09-29T17:33:18.300Z,37.47
2017-09-29T17:35:45.871Z,36.63
2017-09-29T17:38:13.316Z,36.08
2017-09-29T17:40:40.770Z,36.40
2017-09-29T17:43:08.236Z,37.03
2017-09-29T17:45:35.690Z,36.00
2017-09-29T17:48:03.173Z,36.47
2017-09-29T17:50:30.630Z,35.60
2017-09-29T17:52:58.879Z,37.47
2017-09-29T17:55:26.321Z,35.72
2017-09-29T17:57:53.791Z,34.85
2017-09-29T18:00:21.251Z,35.10
2017-09-29T18:02:48.695Z,36.80
2017-09-29T18:05:16.188Z,35.70
2017-09-29T18:07:44.508Z,36.35
2017-09-29T18:10:12.116Z,35.35
2017-09-29T18:12:39.636Z,36.07
2017-09-29T18:15:07.072Z,35.30
2017-09-29T18:17:34.641Z,34.80
2017-09-29T18:20:02.075Z,37.78
2017-09-29T18:22:30.279Z,37.13
2017-09-29T18:24:57.720Z,35.55
2017-09-29T18:27:25.183Z,34.70
2017-09-29T18:29:52.619Z,33.70
2017-09-29T18:32:20.059Z,34.33
2017-09-29T18:34:48.266Z,34.83
2017-09-29T18:37:15.741Z,37.30
2017-09-29T18:39:43.201Z,34.50
2017-09-29T18:42:10.651Z,34.45
2017-09-29T18:44:40.716Z,33.25
2017-09-29T18:47:10.156Z,34.53
2017-09-29T18:49:37.649Z,33.95
2017-09-29T18:52:05.099Z,31.77
2017-09-29T18:54:32.561Z,32.45
2017-09-29T18:57:00.020Z,31.45
2017-09-29T18:59:27.500Z,32.40
2017-09-29T19:01:55.703Z,30.90
2017-09-29T19:04:23.162Z,30.05
2017-09-29T19:06:50.770Z,31.55
2017-09-29T19:09:18.216Z,30.10
2017-09-29T19:11:45.667Z,29.98
2017-09-29T19:14:13.838Z,28.80
2017-09-29T19:16:41.322Z,31.48
2017-09-29T19:19:08.797Z,30.10
2017-09-29T19:21:37.023Z,31.05
2017-09-29T19:24:04.492Z,31.52
2017-09-29T19:26:31.942Z,31.62
2017-09-29T19:28:59.384Z,32.10
2017-09-29T19:31:27.379Z,32.60
2017-09-29T19:33:54.946Z,32.28
2017-09-29T19:36:22.402Z,32.30
2017-09-29T19:38:49.838Z,32.70
2017-09-29T19:41:17.293Z,32.30
2017-09-29T19:43:44.738Z,31.43
2017-09-29T19:46:12.211Z,33.08
2017-09-29T19:48:39.678Z,34.13
2017-09-29T19:51:07.886Z,33.55
2017-09-29T19:53:35.326Z,32.87
2017-09-29T19:56:03.569Z,34.92
2017-09-29T19:58:31.018Z,33.72
2017-09-29T20:00:58.482Z,32.58
2017-09-29T20:03:25.920Z,33.90
2017-09-29T20:05:53.372Z,34.28
2017-09-29T20:08:20.828Z,33.50
2017-09-29T20:10:48.284Z,33.80
2017-09-29T20:13:15.859Z,32.65
2017-09-29T20:15:43.322Z,33.23
2017-09-29T20:18:10.760Z,33.90
2017-09-29T20:20:38.233Z,32.70
2017-09-29T20:23:05.691Z,30.75
2017-09-29T20:25:33.140Z,32.22
2017-09-29T20:28:00.594Z,34.33
2017-09-29T20:30:28.048Z,30.23
2017-09-29T20:32:55.589Z,31.60
2017-09-29T20:35:23.023Z,30.90
2017-09-29T20:37:50.559Z,30.62
2017-09-29T20:40:18.776Z,30.10
2017-09-29T20:42:46.226Z,30.15
2017-09-29T20:45:13.720Z,29.12
2017-09-29T20:47:41.174Z,29.35
2017-09-29T20:50:08.623Z,29.40
2017-09-29T20:52:36.078Z,29.23
2017-09-29T20:55:03.524Z,28.83
2017-09-29T20:57:30.975Z,29.33
2017-09-29T20:59:58.581Z,30.73
2017-09-29T21:02:26.053Z,29.90
2017-09-29T21:04:54.267Z,29.60
2017-09-29T21:07:21.831Z,29.20
2017-09-29T21:09:49.379Z,28.60
2017-09-29T21:12:16.827Z,27.83
2017-09-29T21:14:44.315Z,28.10
2017-09-29T21:17:11.888Z,27.80
2017-09-29T21:19:39.355Z,27.23
2017-09-29T21:22:06.800Z,28.08
2017-09-29T21:24:34.247Z,27.70
2017-09-29T21:27:01.776Z,27.97
2017-09-29T21:29:29.342Z,28.25
2017-09-29T21:31:56.906Z,28.75
2017-09-29T21:34:24.322Z,28.07
2017-09-29T21:36:51.772Z,27.52
2017-09-29T21:39:19.971Z,28.98
2017-09-29T21:41:47.431Z,27.67
2017-09-29T21:44:15.021Z,28.07
2017-09-29T21:46:42.455Z,28.10
2017-09-29T21:49:09.906Z,26.35
2017-09-29T21:51:37.378Z,26.67
2017-09-29T21:54:04.840Z,26.02
2017-09-29T21:56:32.282Z,27.60
2017-09-29T21:59:00.606Z,27.15
2017-09-29T22:01:28.828Z,25.12
2017-09-29T22:03:56.271Z,26.92
2017-09-29T22:06:23.742Z,26.10
2017-09-29T22:08:51.209Z,26.70
2017-09-29T22:11:18.658Z,25.80
2017-09-29T22:13:46.154Z,25.73
2017-09-29T22:16:13.606Z,26.58
2017-09-29T22:18:41.050Z,26.35
2017-09-29T22:21:08.487Z,28.23
2017-09-29T22:23:36.039Z,26.17
2017-09-29T22:26:03.488Z,27.80
2017-09-29T22:28:31.566Z,25.33
2017-09-29T22:30:59.043Z,26.50
2017-09-29T22:33:26.505Z,25.33
2017-09-29T22:35:54.064Z,26.67
2017-09-29T22:38:21.624Z,26.30
2017-09-29T22:40:49.071Z,25.58
2017-09-29T22:45:50.351Z,26.85
2017-09-29T22:48:17.790Z,26.35
2017-09-29T22:50:45.335Z,26.30
2017-09-29T22:53:13.025Z,26.20
2017-09-29T22:55:40.458Z,27.70
2017-09-29T22:58:07.907Z,26.30
2017-09-29T23:00:35.355Z,27.10
2017-09-29T23:03:02.803Z,26.08
2017-09-29T23:05:30.305Z,27.60
2017-09-29T23:07:57.810Z,26.87
2017-09-29T23:10:25.250Z,26.55
2017-09-29T23:12:52.722Z,26.98
2017-09-29T23:15:20.183Z,26.40
2017-09-29T23:17:48.419Z,28.20
2017-09-29T23:20:15.858Z,27.40
2017-09-29T23:22:43.307Z,28.73
2017-09-29T23:25:10.811Z,28.08
2017-09-29T23:27:38.234Z,27.20
2017-09-29T23:30:05.892Z,27.30
2017-09-29T23:32:33.420Z,28.20
2017-09-29T23:35:00.913Z,27.83
2017-09-29T23:37:28.459Z,27.98
2017-09-29T23:39:55.922Z,28.50
2017-09-29T23:42:23.367Z,27.95
2017-09-29T23:44:50.832Z,28.27
2017-09-29T23:47:18.355Z,29.23
2017-09-29T23:49:45.842Z,29.80
2017-09-29T23:52:13.281Z,28.98
2017-09-29T23:54:40.726Z,28.73
2017-09-29T23:57:08.164Z,29.90
2017-09-29T23:59:35.624Z,29.20
